Huntley, IL (60142)

12:20 AM CDT on August 05, 2015 (GMT -0500)
SOMERSET LN | | Change Station
CLOSE
Current Station
Personal Weather Station
Location: Huntley, IL
Elevation: 883 ft
Nearby Weather Stations

Elev 883 ft 42.19 °N, 88.40 °W | Updated 6 minutes ago

Clear
Clear
59.2 °F
Feels Like 59.2 °F
N
0.0
Wind Variable Wind from West

Today
High -- | Low -- °F
--% Chance of Precip.
Yesterday
High -- | Low -- °F
Precip. -- in
5:50 AM 8:08 PM
Waning Gibbous, 71% visible
Pressure 30.03 in
Visibility 10.0 miles
Clouds Clear
Dew Point 54 °F
Humidity 84%
Rainfall 0.00 in
Snow Depth Not available.
UV 0 out of 12
Pollen 7.70 out of 12
Air Quality Not available.
Flu Activity Not available.
METAR KDPA 050452Z 00000KT 10SM CLR 17/14 A3004 RMK AO2 SLP168 T01720139

More Conditions Fewer Conditions

Pressure 30.03 in
Visibility 10.0 miles
Clouds Clear
Dew Point 54 °F
Humidity 84%
Rainfall 0.00 in
Snow Depth Not available.
UV 0 out of 12
Pollen 7.70 out of 12
Air Quality Not available.
Flu Activity Not available.
METAR KDPA 050452Z 00000KT 10SM CLR 17/14 A3004 RMK AO2 SLP168 T01720139

More Conditions Fewer Conditions

10-Day Weather Forecast

×

Almanac

Astronomy

Aug. 05, 2015 Rise Set
Actual Time
Civil Twilight
Nautical Twilight
Astronomical Twilight
Moon
Length of Visible Light
Length of Day
Tomorrow will be .
, % of the Moon is Illuminated

Today's Extremes

State Highs State Lows

Community

WunderPhotos

Upload Photos

1,844,098 photos uploaded!

WunderBlogs® & News

Nearby

Air Quality

  Air Quality AQ Index Pollutant
Not available.

Snow Depth

Station Depth Elevation

Earthquake Activity

City Distance Mag. Time & Date
Minimum magnitude displayed is 2.5.

Coastal Water Temperatures

Place Temperature

Stations

Nearby Weather Stations

Station Location Temp. Windchill Dew Point Humidity Wind Precip. Elev Updated Type